createdAt,value
2023-05-16T00:02:24.759Z,36.98
2023-05-16T00:04:51.878Z,37.24
2023-05-16T00:07:18.488Z,36.48
2023-05-16T00:09:45.007Z,36.02
2023-05-16T00:12:11.787Z,37.11
2023-05-16T00:14:38.327Z,36.05
2023-05-16T00:17:11.405Z,37.27
2023-05-16T00:19:42.214Z,36.11
2023-05-16T00:22:08.873Z,35.63
2023-05-16T00:24:35.441Z,35.78
2023-05-16T00:27:03.829Z,36.11
2023-05-16T00:29:34.820Z,35.89
2023-05-16T00:32:01.445Z,35.65
2023-05-16T00:34:28.172Z,35.75
2023-05-16T00:36:54.865Z,35.87
2023-05-16T00:39:21.831Z,35.38
2023-05-16T00:41:49.220Z,36.07
2023-05-16T00:44:16.011Z,35.71
2023-05-16T00:46:42.930Z,34.95
2023-05-16T00:49:10.923Z,35.98
2023-05-16T00:51:39.479Z,37.14
2023-05-16T00:54:06.654Z,36.48
2023-05-16T00:56:34.034Z,36.83
2023-05-16T00:59:00.645Z,36.62
2023-05-16T01:01:28.574Z,36.04
2023-05-16T01:03:56.103Z,36.36
2023-05-16T01:06:23.246Z,36.63
2023-05-16T01:08:49.833Z,36.26
2023-05-16T01:11:27.115Z,35.41
2023-05-16T01:14:12.457Z,36.15
2023-05-16T01:16:49.703Z,37.02
2023-05-16T01:19:53.194Z,36.17
2023-05-16T01:22:47.689Z,35.51
2023-05-16T01:25:35.355Z,35.04
2023-05-16T01:28:03.166Z,36.29
2023-05-16T01:30:36.937Z,35.08
2023-05-16T01:33:03.659Z,34.89
2023-05-16T01:35:31.318Z,35.40
2023-05-16T01:38:23.253Z,35.20
2023-05-16T01:41:08.152Z,34.95
2023-05-16T01:43:42.002Z,35.40
2023-05-16T01:46:15.531Z,36.32
2023-05-16T01:48:53.361Z,35.77
2023-05-16T01:51:27.855Z,36.28
2023-05-16T01:54:01.257Z,36.46
2023-05-16T01:56:29.636Z,36.63
2023-05-16T01:58:59.384Z,36.83
2023-05-16T02:01:26.001Z,37.83
2023-05-16T02:03:52.651Z,36.32
2023-05-16T02:06:19.379Z,36.83
2023-05-16T02:08:46.656Z,36.14
2023-05-16T02:11:13.208Z,38.45
2023-05-16T02:13:39.821Z,38.10
2023-05-16T02:16:06.627Z,37.92
2023-05-16T02:18:33.354Z,38.49
2023-05-16T02:20:59.898Z,37.51
2023-05-16T02:23:26.453Z,38.21
2023-05-16T02:25:53.969Z,38.00
2023-05-16T02:28:22.456Z,38.15
2023-05-16T02:30:59.824Z,38.79
2023-05-16T02:33:28.107Z,38.70
2023-05-16T02:35:55.595Z,39.61
2023-05-16T02:38:22.338Z,40.30
2023-05-16T02:40:49.737Z,39.88
2023-05-16T02:43:16.546Z,39.24
2023-05-16T02:45:43.178Z,38.32
2023-05-16T02:48:09.913Z,38.33
2023-05-16T02:50:37.504Z,38.06
2023-05-16T02:53:04.611Z,37.35
2023-05-16T02:55:31.434Z,37.07
2023-05-16T02:57:58.030Z,38.63
2023-05-16T03:00:24.622Z,37.94
2023-05-16T03:02:51.982Z,37.54
2023-05-16T03:05:18.914Z,37.11
2023-05-16T03:07:45.624Z,36.12
2023-05-16T03:10:12.443Z,36.50
2023-05-16T03:12:38.965Z,36.46
2023-05-16T03:15:06.278Z,37.07
2023-05-16T03:17:33.036Z,37.48
2023-05-16T03:20:00.068Z,37.67
2023-05-16T03:22:27.441Z,38.52
2023-05-16T03:24:54.047Z,38.36
2023-05-16T03:27:20.769Z,37.38
2023-05-16T03:29:49.497Z,37.64
2023-05-16T03:32:16.253Z,37.19
2023-05-16T03:34:42.800Z,37.43
2023-05-16T03:37:10.896Z,38.30
2023-05-16T03:39:37.460Z,39.20
2023-05-16T03:42:04.745Z,38.09
2023-05-16T03:44:31.609Z,38.01
2023-05-16T03:46:58.186Z,38.03
2023-05-16T03:49:28.311Z,38.37
2023-05-16T03:51:55.597Z,38.68
2023-05-16T03:54:22.793Z,38.25
2023-05-16T03:56:49.803Z,38.23
2023-05-16T03:59:16.889Z,38.16
2023-05-16T04:01:43.627Z,38.22
2023-05-16T04:04:10.192Z,38.34
2023-05-16T04:06:36.727Z,38.04
2023-05-16T04:09:03.381Z,38.10
2023-05-16T04:11:29.980Z,38.04
2023-05-16T04:13:57.415Z,37.89
2023-05-16T04:16:24.022Z,38.61
2023-05-16T04:18:50.786Z,38.01
2023-05-16T04:21:17.402Z,36.89
2023-05-16T04:23:44.063Z,37.05
2023-05-16T04:26:10.650Z,37.99
2023-05-16T04:28:37.339Z,37.77
2023-05-16T04:31:03.965Z,38.31
2023-05-16T04:33:30.600Z,36.17
2023-05-16T04:35:58.554Z,36.87
2023-05-16T04:38:25.110Z,36.72
2023-05-16T04:40:52.473Z,36.21
2023-05-16T04:43:19.871Z,37.40
2023-05-16T04:45:47.134Z,37.20
2023-05-16T04:48:13.666Z,36.27
2023-05-16T04:50:40.311Z,36.79
2023-05-16T04:53:07.298Z,36.65
2023-05-16T04:55:33.880Z,36.83
2023-05-16T04:58:00.854Z,36.16
2023-05-16T05:00:28.367Z,37.02
2023-05-16T05:02:55.325Z,37.23
2023-05-16T05:05:22.304Z,36.84
2023-05-16T05:07:49.154Z,35.65
2023-05-16T05:10:16.268Z,35.62
2023-05-16T05:12:42.820Z,34.75
2023-05-16T05:15:09.563Z,34.60
2023-05-16T05:17:37.697Z,34.42
2023-05-16T05:20:08.654Z,34.18
2023-05-16T05:22:35.367Z,33.64
2023-05-16T05:25:01.907Z,33.63
2023-05-16T05:27:28.619Z,33.01
2023-05-16T05:29:55.386Z,32.87
2023-05-16T05:32:21.939Z,32.96
2023-05-16T05:34:48.508Z,32.37
2023-05-16T05:37:15.120Z,33.04
2023-05-16T05:39:41.988Z,32.78
2023-05-16T05:42:09.441Z,32.59
2023-05-16T05:44:37.835Z,32.50
2023-05-16T05:47:06.326Z,31.86
2023-05-16T05:49:33.169Z,31.39
2023-05-16T05:51:59.989Z,30.92
2023-05-16T05:54:26.808Z,31.74
2023-05-16T05:56:53.475Z,31.61
2023-05-16T05:59:20.001Z,31.55
2023-05-16T06:01:46.712Z,31.41
2023-05-16T06:04:13.257Z,30.83
2023-05-16T06:06:40.215Z,30.93
2023-05-16T06:09:06.993Z,32.14
2023-05-16T06:11:33.568Z,31.65
2023-05-16T06:14:00.139Z,31.22
2023-05-16T06:16:27.080Z,30.12
2023-05-16T06:18:53.758Z,29.17
2023-05-16T06:21:20.542Z,28.64
2023-05-16T06:23:47.116Z,28.80
2023-05-16T06:26:13.696Z,27.67
2023-05-16T06:28:40.757Z,27.20
2023-05-16T06:31:07.397Z,26.36
2023-05-16T06:33:34.038Z,26.13
2023-05-16T06:36:00.664Z,26.26
2023-05-16T06:38:27.296Z,27.20
2023-05-16T06:40:53.866Z,27.23
2023-05-16T06:43:20.984Z,27.13
2023-05-16T06:45:47.747Z,27.02
2023-05-16T06:48:15.532Z,26.50
2023-05-16T06:50:42.340Z,24.96
2023-05-16T06:53:09.086Z,24.30
2023-05-16T06:55:35.735Z,24.17
2023-05-16T06:58:02.332Z,24.52
2023-05-16T07:00:28.961Z,24.44
2023-05-16T07:02:55.692Z,25.52
2023-05-16T07:05:22.325Z,26.43
2023-05-16T07:07:49.611Z,26.02
2023-05-16T07:10:16.469Z,26.37
2023-05-16T07:12:43.504Z,26.66
2023-05-16T07:15:10.670Z,26.24
2023-05-16T07:17:37.388Z,25.38
2023-05-16T07:20:05.517Z,24.04
2023-05-16T07:22:32.405Z,23.75
2023-05-16T07:25:00.974Z,24.03
2023-05-16T07:27:28.284Z,24.68
2023-05-16T07:29:54.885Z,25.82
2023-05-16T07:32:21.537Z,26.84
2023-05-16T07:34:48.368Z,27.06
2023-05-16T07:37:16.198Z,26.32
2023-05-16T07:39:42.916Z,26.27
2023-05-16T07:42:09.672Z,24.24
2023-05-16T07:44:37.382Z,24.01
2023-05-16T07:47:04.030Z,23.77
2023-05-16T07:49:30.841Z,24.50
2023-05-16T07:51:57.413Z,24.42
2023-05-16T07:54:24.025Z,24.65
2023-05-16T07:56:50.936Z,24.63
2023-05-16T07:59:17.649Z,24.19
2023-05-16T08:01:44.368Z,23.93
2023-05-16T08:04:11.374Z,23.60
2023-05-16T08:06:37.973Z,22.96
2023-05-16T08:09:04.550Z,23.16
2023-05-16T08:11:31.731Z,23.06
2023-05-16T08:13:58.366Z,22.93
2023-05-16T08:16:24.956Z,23.37
2023-05-16T08:18:52.031Z,23.33
2023-05-16T08:21:18.626Z,23.62
2023-05-16T08:23:45.493Z,23.48
2023-05-16T08:26:12.065Z,22.70
2023-05-16T08:28:38.643Z,22.73
2023-05-16T08:31:05.427Z,23.39
2023-05-16T08:33:32.042Z,24.13
2023-05-16T08:35:58.814Z,22.99
2023-05-16T08:38:25.537Z,22.70
2023-05-16T08:40:52.758Z,21.95
2023-05-16T08:43:19.665Z,21.97
2023-05-16T08:45:46.334Z,23.14
2023-05-16T08:48:15.798Z,23.90
2023-05-16T08:50:44.303Z,23.34
2023-05-16T08:53:14.632Z,22.35
2023-05-16T08:55:44.156Z,23.02
2023-05-16T08:58:11.462Z,23.28
2023-05-16T09:00:39.701Z,23.61
2023-05-16T09:03:07.574Z,24.46
2023-05-16T09:05:35.190Z,25.35
2023-05-16T09:08:01.815Z,26.50
2023-05-16T09:10:28.397Z,26.90
2023-05-16T09:12:55.093Z,27.29
2023-05-16T09:15:21.850Z,26.91
2023-05-16T09:17:49.118Z,26.99
2023-05-16T09:20:17.895Z,25.72
2023-05-16T09:22:59.410Z,26.73
2023-05-16T09:25:30.809Z,26.23
2023-05-16T09:27:59.785Z,24.75
2023-05-16T09:30:31.309Z,24.17
2023-05-16T09:32:59.117Z,24.37
2023-05-16T09:35:43.138Z,23.93
2023-05-16T09:38:17.946Z,23.74
2023-05-16T09:40:45.362Z,24.41
2023-05-16T09:43:16.217Z,24.18
2023-05-16T09:45:47.931Z,24.18
2023-05-16T09:48:15.820Z,24.27
2023-05-16T09:50:49.873Z,24.38
2023-05-16T09:53:16.719Z,23.98
2023-05-16T09:55:43.543Z,24.15
2023-05-16T09:58:10.149Z,24.48
2023-05-16T10:00:38.011Z,24.07
2023-05-16T10:03:05.856Z,24.95
2023-05-16T10:05:34.023Z,24.84
2023-05-16T10:08:02.813Z,24.23
2023-05-16T10:10:30.200Z,23.93
2023-05-16T10:13:01.373Z,23.86
2023-05-16T10:15:29.557Z,23.77
2023-05-16T10:18:00.350Z,23.60
2023-05-16T10:20:27.457Z,23.74
2023-05-16T10:22:56.660Z,23.37
2023-05-16T10:25:26.561Z,22.78
2023-05-16T10:27:55.057Z,23.47
2023-05-16T10:30:22.254Z,23.75
2023-05-16T10:32:50.637Z,24.03
2023-05-16T10:35:17.879Z,23.51
2023-05-16T10:37:44.771Z,24.37
2023-05-16T10:40:12.170Z,23.53
2023-05-16T10:42:39.439Z,23.30
2023-05-16T10:45:16.919Z,22.60
2023-05-16T10:47:57.492Z,22.35
2023-05-16T10:50:44.366Z,22.38
2023-05-16T10:53:17.116Z,22.02
2023-05-16T10:55:58.972Z,22.89
2023-05-16T10:58:31.838Z,23.00
2023-05-16T11:01:30.497Z,23.48
2023-05-16T11:03:57.140Z,22.60
2023-05-16T11:06:25.399Z,22.68
2023-05-16T11:09:10.947Z,23.07
2023-05-16T11:11:55.489Z,24.63
2023-05-16T11:14:28.928Z,24.15
2023-05-16T11:17:23.461Z,26.72
2023-05-16T11:19:56.149Z,29.97
2023-05-16T11:22:43.273Z,30.59
2023-05-16T11:25:10.858Z,33.09
2023-05-16T11:27:45.852Z,31.59
2023-05-16T11:30:15.450Z,31.88
2023-05-16T11:32:44.707Z,31.22
2023-05-16T11:35:14.974Z,29.82
2023-05-16T11:37:42.755Z,29.00
2023-05-16T11:40:12.117Z,29.17
2023-05-16T11:42:44.540Z,28.44
2023-05-16T11:45:24.254Z,27.85
2023-05-16T11:47:51.320Z,26.66
2023-05-16T11:50:19.966Z,26.97
2023-05-16T11:52:49.170Z,27.25
2023-05-16T11:55:28.101Z,27.08
2023-05-16T11:57:59.951Z,26.79
2023-05-16T12:00:27.228Z,26.19
2023-05-16T12:02:55.929Z,25.99
2023-05-16T12:05:27.148Z,26.13
2023-05-16T12:07:54.667Z,25.50
2023-05-16T12:10:21.383Z,25.41
2023-05-16T12:12:52.438Z,25.23
2023-05-16T12:15:19.547Z,25.08
2023-05-16T12:17:47.656Z,24.86
2023-05-16T12:20:16.316Z,25.46
2023-05-16T12:22:44.494Z,25.76
2023-05-16T12:25:32.006Z,25.35
2023-05-16T12:28:01.531Z,26.09
2023-05-16T12:30:30.233Z,26.02
2023-05-16T12:32:58.574Z,24.49
2023-05-16T12:35:30.018Z,24.60
2023-05-16T12:37:56.908Z,25.11
2023-05-16T12:40:24.028Z,24.61
2023-05-16T12:42:52.560Z,24.63
2023-05-16T12:45:19.356Z,24.79
2023-05-16T12:47:47.115Z,25.17
2023-05-16T12:50:15.016Z,24.56
2023-05-16T12:52:52.386Z,23.87
2023-05-16T12:55:20.380Z,24.48
2023-05-16T12:57:48.471Z,24.42
2023-05-16T13:00:18.778Z,24.29
2023-05-16T13:02:47.499Z,23.96
2023-05-16T13:05:14.825Z,24.77
2023-05-16T13:07:41.504Z,24.68
2023-05-16T13:10:13.655Z,24.63
2023-05-16T13:12:42.268Z,24.55
2023-05-16T13:15:11.198Z,24.15
2023-05-16T13:17:39.301Z,24.45
2023-05-16T13:20:09.970Z,24.79
2023-05-16T13:22:37.090Z,26.36
2023-05-16T13:25:04.829Z,25.98
2023-05-16T13:27:32.688Z,23.53
2023-05-16T13:29:59.445Z,24.02
2023-05-16T13:32:26.771Z,24.11
2023-05-16T13:34:54.490Z,23.73
2023-05-16T13:37:21.379Z,23.98
2023-05-16T13:39:48.580Z,23.90
2023-05-16T13:42:15.210Z,23.51
2023-05-16T13:44:42.389Z,23.68
2023-05-16T13:47:09.035Z,23.65
2023-05-16T13:49:35.676Z,22.79
2023-05-16T13:52:02.621Z,24.01
2023-05-16T13:54:29.586Z,25.77
2023-05-16T13:56:56.271Z,28.36
2023-05-16T13:59:39.560Z,28.33
2023-05-16T14:02:09.655Z,31.34
2023-05-16T14:04:37.027Z,31.00
2023-05-16T14:07:03.871Z,29.97
2023-05-16T14:09:31.375Z,28.86
2023-05-16T14:11:57.946Z,28.49
2023-05-16T14:14:24.479Z,27.26
2023-05-16T14:16:51.445Z,26.02
2023-05-16T14:19:19.626Z,25.86
2023-05-16T14:21:46.834Z,25.57
2023-05-16T14:24:13.490Z,25.81
2023-05-16T14:26:40.098Z,25.86
2023-05-16T14:29:06.973Z,26.51
2023-05-16T14:31:33.884Z,25.79
2023-05-16T14:34:00.473Z,26.11
2023-05-16T14:36:27.375Z,26.49
2023-05-16T14:38:53.939Z,26.12
2023-05-16T14:41:23.247Z,25.86
2023-05-16T14:43:50.426Z,26.05
2023-05-16T14:46:17.546Z,26.70
2023-05-16T14:48:44.332Z,26.20
2023-05-16T14:51:11.936Z,26.04
2023-05-16T14:53:38.599Z,26.85
2023-05-16T14:56:05.317Z,27.81
2023-05-16T14:58:32.232Z,27.43
2023-05-16T15:00:58.984Z,26.88
2023-05-16T15:03:25.775Z,26.67
2023-05-16T15:05:52.747Z,26.13
2023-05-16T15:08:19.716Z,26.58
2023-05-16T15:10:46.574Z,25.70
2023-05-16T15:13:13.242Z,25.97
2023-05-16T15:15:39.950Z,25.53
2023-05-16T15:18:06.727Z,25.40
2023-05-16T15:20:33.570Z,25.28
2023-05-16T15:23:00.562Z,25.41
2023-05-16T15:25:27.776Z,23.66
2023-05-16T15:27:55.278Z,23.74
2023-05-16T15:30:22.303Z,23.95
2023-05-16T15:32:48.959Z,24.64
2023-05-16T15:35:16.246Z,25.32
2023-05-16T15:37:43.721Z,25.75
2023-05-16T15:40:11.772Z,24.66
2023-05-16T15:42:38.375Z,24.56
2023-05-16T15:45:05.918Z,25.11
2023-05-16T15:47:32.594Z,25.48
2023-05-16T15:49:59.329Z,24.78
2023-05-16T15:52:25.977Z,24.64
2023-05-16T15:54:52.549Z,24.76
2023-05-16T15:57:19.228Z,25.34
2023-05-16T15:59:45.825Z,24.88
2023-05-16T16:02:12.692Z,24.59
2023-05-16T16:04:39.376Z,25.04
2023-05-16T16:07:05.963Z,24.55
2023-05-16T16:09:32.546Z,24.51
2023-05-16T16:11:59.143Z,24.77
2023-05-16T16:14:26.004Z,26.36
2023-05-16T16:16:52.654Z,26.17
2023-05-16T16:19:19.357Z,26.09
2023-05-16T16:21:46.333Z,26.25
2023-05-16T16:24:13.708Z,25.98
2023-05-16T16:26:41.403Z,26.38
2023-05-16T16:29:08.018Z,25.85
2023-05-16T16:31:34.791Z,26.26
2023-05-16T16:38:53.757Z,27.26
2023-05-16T16:41:20.714Z,28.03
2023-05-16T16:43:47.395Z,28.77
2023-05-16T16:46:14.355Z,29.23
2023-05-16T16:48:40.921Z,29.03
2023-05-16T16:51:07.963Z,29.48
2023-05-16T16:53:37.794Z,29.32
2023-05-16T16:56:04.553Z,29.14
2023-05-16T16:58:31.370Z,29.46
2023-05-16T17:00:58.255Z,29.23
2023-05-16T17:03:25.043Z,29.68
2023-05-16T17:05:53.122Z,29.71
2023-05-16T17:08:20.486Z,30.88
2023-05-16T17:10:48.042Z,29.94
2023-05-16T17:13:17.409Z,30.98
2023-05-16T17:15:47.421Z,31.75
2023-05-16T17:18:15.022Z,32.09
2023-05-16T17:20:41.867Z,31.78
2023-05-16T17:23:09.017Z,31.51
2023-05-16T17:25:35.845Z,31.39
2023-05-16T17:28:02.695Z,31.53
2023-05-16T17:30:29.548Z,31.43
2023-05-16T17:32:56.331Z,31.15
2023-05-16T17:35:23.319Z,31.12
2023-05-16T17:37:51.029Z,30.04
2023-05-16T17:40:18.052Z,29.74
2023-05-16T17:42:45.638Z,29.65
2023-05-16T17:45:14.731Z,29.26
2023-05-16T17:47:42.039Z,29.11
2023-05-16T17:50:10.532Z,28.74
2023-05-16T17:52:39.351Z,29.23
2023-05-16T17:55:08.746Z,29.54
2023-05-16T17:57:36.432Z,30.00
2023-05-16T18:00:05.560Z,30.30
2023-05-16T18:02:32.911Z,30.32
2023-05-16T18:05:00.037Z,30.07
2023-05-16T18:07:27.089Z,29.84
2023-05-16T18:09:54.438Z,29.61
2023-05-16T18:12:22.047Z,29.77
2023-05-16T18:14:50.382Z,29.77
2023-05-16T18:17:17.233Z,30.32
2023-05-16T18:19:44.356Z,29.51
2023-05-16T18:22:12.802Z,29.29
2023-05-16T18:24:39.973Z,29.57
2023-05-16T18:27:07.000Z,29.56
2023-05-16T18:29:34.321Z,29.02
2023-05-16T18:32:01.477Z,29.05
2023-05-16T18:34:28.324Z,30.27
2023-05-16T18:36:55.151Z,30.26
2023-05-16T18:39:22.022Z,30.24
2023-05-16T18:41:49.195Z,29.88
2023-05-16T18:44:17.284Z,29.75
2023-05-16T18:46:46.065Z,29.91
2023-05-16T18:49:13.599Z,29.23
2023-05-16T18:51:40.662Z,29.73
2023-05-16T18:54:07.526Z,29.81
2023-05-16T18:56:34.752Z,29.96
2023-05-16T18:59:01.555Z,30.05
2023-05-16T19:01:28.700Z,30.29
2023-05-16T19:03:55.950Z,31.33
2023-05-16T19:06:23.022Z,31.46
2023-05-16T19:08:49.801Z,31.26
2023-05-16T19:11:17.578Z,30.93
2023-05-16T19:13:47.107Z,31.22
2023-05-16T19:16:15.239Z,31.44
2023-05-16T19:18:42.420Z,31.51
2023-05-16T19:21:10.902Z,31.37
2023-05-16T19:23:37.769Z,32.20
2023-05-16T19:26:06.465Z,32.77
2023-05-16T19:28:34.595Z,31.76
2023-05-16T19:31:01.662Z,32.30
2023-05-16T19:33:28.391Z,32.87
2023-05-16T19:35:57.680Z,32.71
2023-05-16T19:38:25.155Z,32.39
2023-05-16T19:40:53.053Z,32.16
2023-05-16T19:43:19.904Z,32.07
2023-05-16T19:45:46.699Z,32.35
2023-05-16T19:48:13.904Z,31.69
2023-05-16T19:50:40.971Z,32.25
2023-05-16T19:53:07.989Z,32.01
2023-05-16T19:55:37.878Z,32.00
2023-05-16T19:58:05.991Z,32.25
2023-05-16T20:00:32.750Z,31.89
2023-05-16T20:02:59.622Z,32.16
2023-05-16T20:05:27.022Z,31.93
2023-05-16T20:07:55.353Z,32.12
2023-05-16T20:10:22.314Z,31.73
2023-05-16T20:12:49.045Z,31.59
2023-05-16T20:15:16.187Z,31.63
2023-05-16T20:17:43.098Z,31.17
2023-05-16T20:20:10.589Z,31.19
2023-05-16T20:22:41.457Z,31.10
2023-05-16T20:25:09.637Z,31.40
2023-05-16T20:27:36.356Z,30.93
2023-05-16T20:30:04.753Z,31.74
2023-05-16T20:32:31.499Z,31.72
2023-05-16T20:34:58.617Z,32.37
2023-05-16T20:37:28.285Z,32.51
2023-05-16T20:39:55.537Z,32.57
2023-05-16T20:42:22.325Z,33.46
2023-05-16T20:44:49.187Z,32.83
2023-05-16T20:47:17.030Z,32.96
2023-05-16T20:49:43.957Z,33.30
2023-05-16T20:52:11.313Z,32.65
2023-05-16T20:54:38.045Z,32.35
2023-05-16T20:57:05.327Z,32.63
2023-05-16T20:59:32.367Z,33.40
2023-05-16T21:01:59.422Z,33.77
2023-05-16T21:04:26.089Z,33.78
2023-05-16T21:06:52.681Z,33.76
2023-05-16T21:09:19.366Z,33.70
2023-05-16T21:11:46.305Z,33.82
2023-05-16T21:14:12.896Z,33.90
2023-05-16T21:16:39.926Z,33.45
2023-05-16T21:19:06.639Z,33.07
2023-05-16T21:21:33.446Z,33.19
2023-05-16T21:24:00.061Z,33.86
2023-05-16T21:26:26.665Z,33.65
2023-05-16T21:28:55.521Z,33.99
2023-05-16T21:31:23.671Z,33.41
2023-05-16T21:33:53.019Z,33.21
2023-05-16T21:36:20.598Z,33.03
2023-05-16T21:38:47.390Z,32.71
2023-05-16T21:41:14.747Z,33.23
2023-05-16T21:43:41.343Z,33.01
2023-05-16T21:46:07.995Z,33.28
2023-05-16T21:48:34.953Z,33.68
2023-05-16T21:51:01.764Z,34.07
2023-05-16T21:53:28.401Z,33.51
2023-05-16T21:55:55.250Z,33.69
2023-05-16T21:58:22.083Z,35.06
2023-05-16T22:00:49.489Z,34.87
2023-05-16T22:03:19.047Z,34.97
2023-05-16T22:05:46.599Z,35.58
2023-05-16T22:08:13.322Z,34.80
2023-05-16T22:10:40.560Z,34.52
2023-05-16T22:13:08.009Z,34.03
2023-05-16T22:15:34.819Z,34.35
2023-05-16T22:18:01.670Z,34.25
2023-05-16T22:20:28.829Z,34.14
2023-05-16T22:22:55.480Z,34.72
2023-05-16T22:25:22.487Z,35.25
2023-05-16T22:27:49.326Z,35.77
2023-05-16T22:30:16.318Z,35.74
2023-05-16T22:32:43.165Z,34.91
2023-05-16T22:35:09.848Z,35.30
2023-05-16T22:37:36.450Z,34.77
2023-05-16T22:40:03.133Z,35.03
2023-05-16T22:42:31.247Z,34.98
2023-05-16T22:44:57.946Z,35.08
2023-05-16T22:47:24.571Z,35.78
2023-05-16T22:49:51.162Z,34.91
2023-05-16T22:52:17.760Z,34.48
2023-05-16T22:54:44.377Z,34.85
2023-05-16T22:57:11.373Z,34.46
2023-05-16T22:59:38.226Z,34.93
2023-05-16T23:02:04.845Z,35.08
2023-05-16T23:04:31.446Z,35.10
2023-05-16T23:06:58.096Z,35.41
2023-05-16T23:09:24.785Z,35.83
2023-05-16T23:11:51.406Z,35.19
2023-05-16T23:14:18.296Z,35.19
2023-05-16T23:16:44.858Z,35.71
2023-05-16T23:19:11.560Z,35.64
2023-05-16T23:21:39.963Z,35.10
2023-05-16T23:24:06.764Z,34.86
2023-05-16T23:26:33.382Z,35.56
2023-05-16T23:29:00.665Z,35.08
2023-05-16T23:31:27.296Z,35.29
2023-05-16T23:33:54.185Z,34.41
2023-05-16T23:36:20.862Z,34.57
2023-05-16T23:38:47.926Z,35.53
2023-05-16T23:41:14.548Z,35.11
2023-05-16T23:43:41.471Z,35.45
2023-05-16T23:46:08.048Z,34.88
2023-05-16T23:48:36.534Z,34.78
2023-05-16T23:51:07.221Z,34.56
2023-05-16T23:53:37.390Z,34.33
2023-05-16T23:56:04.206Z,34.36
2023-05-16T23:58:31.188Z,34.48
